sensor_id;sensor_type;location;lat;lon;timestamp;pressure;altitude;pressure_sealevel;temperature;humidity
12077;BME280;12420;42.676;23.262;2023-01-19T00:00:38;93378.09;;;15.10;56.58
12077;BME280;12420;42.676;23.262;2023-01-19T00:03:05;93360.19;;;15.13;56.83
12077;BME280;12420;42.676;23.262;2023-01-19T00:05:40;93372.69;;;15.12;56.33
12077;BME280;12420;42.676;23.262;2023-01-19T00:08:07;93375.47;;;15.12;57.03
12077;BME280;12420;42.676;23.262;2023-01-19T00:10:41;93364.63;;;15.06;57.43
12077;BME280;12420;42.676;23.262;2023-01-19T00:13:08;93421.22;;;14.99;57.59
12077;BME280;12420;42.676;23.262;2023-01-19T00:15:36;93422.69;;;15.00;57.98
12077;BME280;12420;42.676;23.262;2023-01-19T00:18:03;93379.13;;;15.05;57.92
12077;BME280;12420;42.676;23.262;2023-01-19T00:20:30;93393.06;;;14.95;58.14
12077;BME280;12420;42.676;23.262;2023-01-19T00:22:59;93392.03;;;15.00;58.21
12077;BME280;12420;42.676;23.262;2023-01-19T00:25:26;93361.91;;;14.50;58.32
12077;BME280;12420;42.676;23.262;2023-01-19T00:27:53;93433.78;;;14.81;58.71
12077;BME280;12420;42.676;23.262;2023-01-19T00:30:20;93467.84;;;14.98;57.29
12077;BME280;12420;42.676;23.262;2023-01-19T00:32:48;93399.50;;;14.97;57.73
12077;BME280;12420;42.676;23.262;2023-01-19T00:35:15;93425.44;;;14.81;58.08
12077;BME280;12420;42.676;23.262;2023-01-19T00:37:42;93299.94;;;14.20;57.83
12077;BME280;12420;42.676;23.262;2023-01-19T00:40:11;93384.13;;;14.87;57.38
12077;BME280;12420;42.676;23.262;2023-01-19T00:42:38;93412.41;;;15.03;57.20
12077;BME280;12420;42.676;23.262;2023-01-19T00:45:11;93422.25;;;14.94;57.69
12077;BME280;12420;42.676;23.262;2023-01-19T00:47:38;93427.69;;;15.02;56.58
12077;BME280;12420;42.676;23.262;2023-01-19T00:50:09;93401.56;;;14.97;57.52
12077;BME280;12420;42.676;23.262;2023-01-19T00:52:37;93398.06;;;14.96;56.87
12077;BME280;12420;42.676;23.262;2023-01-19T00:55:05;93393.19;;;14.87;56.90
12077;BME280;12420;42.676;23.262;2023-01-19T00:57:32;93426.66;;;14.97;56.70
12077;BME280;12420;42.676;23.262;2023-01-19T00:59:59;93389.97;;;15.01;56.62
12077;BME280;12420;42.676;23.262;2023-01-19T01:02:26;93419.59;;;14.86;56.66
12077;BME280;12420;42.676;23.262;2023-01-19T01:04:52;93402.44;;;15.00;56.61
12077;BME280;12420;42.676;23.262;2023-01-19T01:07:23;93410.22;;;15.01;55.63
12077;BME280;12420;42.676;23.262;2023-01-19T01:09:50;93313.69;;;14.18;55.80
12077;BME280;12420;42.676;23.262;2023-01-19T01:12:17;93341.91;;;14.61;56.09
12077;BME280;12420;42.676;23.262;2023-01-19T01:14:43;93368.84;;;14.78;56.36
12077;BME280;12420;42.676;23.262;2023-01-19T01:17:10;93382.38;;;15.01;56.58
12077;BME280;12420;42.676;23.262;2023-01-19T01:19:39;93393.78;;;15.05;56.18
12077;BME280;12420;42.676;23.262;2023-01-19T01:22:06;93326.91;;;14.47;55.86
12077;BME280;12420;42.676;23.262;2023-01-19T01:24:34;93340.72;;;14.64;56.19
12077;BME280;12420;42.676;23.262;2023-01-19T01:27:01;93405.22;;;14.90;56.76
12077;BME280;12420;42.676;23.262;2023-01-19T01:29:28;93405.81;;;14.98;55.90
12077;BME280;12420;42.676;23.262;2023-01-19T01:31:55;93355.50;;;14.57;56.56
12077;BME280;12420;42.676;23.262;2023-01-19T01:34:22;93362.41;;;14.75;55.45
12077;BME280;12420;42.676;23.262;2023-01-19T01:36:48;93390.56;;;14.99;55.41
12077;BME280;12420;42.676;23.262;2023-01-19T01:39:15;93404.34;;;14.77;55.02
12077;BME280;12420;42.676;23.262;2023-01-19T01:41:43;93392.91;;;14.93;55.14
12077;BME280;12420;42.676;23.262;2023-01-19T01:44:44;93412.00;;;15.06;54.34
12077;BME280;12420;42.676;23.262;2023-01-19T01:47:17;93443.81;;;14.93;53.96
12077;BME280;12420;42.676;23.262;2023-01-19T01:49:48;93400.69;;;15.14;54.23
12077;BME280;12420;42.676;23.262;2023-01-19T01:52:16;93353.03;;;15.00;54.34
12077;BME280;12420;42.676;23.262;2023-01-19T01:54:44;93358.75;;;15.02;53.89
12077;BME280;12420;42.676;23.262;2023-01-19T01:57:12;93303.22;;;14.56;53.49
12077;BME280;12420;42.676;23.262;2023-01-19T01:59:41;93415.34;;;15.14;54.16
12077;BME280;12420;42.676;23.262;2023-01-19T02:02:15;93421.97;;;15.19;54.35
12077;BME280;12420;42.676;23.262;2023-01-19T02:05:03;93350.53;;;14.85;53.90
12077;BME280;12420;42.676;23.262;2023-01-19T02:07:35;93396.44;;;15.03;54.13
12077;BME280;12420;42.676;23.262;2023-01-19T02:10:21;93387.94;;;15.01;53.40
12077;BME280;12420;42.676;23.262;2023-01-19T02:13:07;93353.63;;;14.98;54.04
12077;BME280;12420;42.676;23.262;2023-01-19T02:15:44;93386.16;;;15.15;53.60
12077;BME280;12420;42.676;23.262;2023-01-19T02:18:10;93405.66;;;15.15;53.94
12077;BME280;12420;42.676;23.262;2023-01-19T02:20:39;93404.81;;;14.93;53.78
12077;BME280;12420;42.676;23.262;2023-01-19T02:23:14;93395.53;;;15.10;54.02
12077;BME280;12420;42.676;23.262;2023-01-19T02:25:45;93312.00;;;14.62;53.42
12077;BME280;12420;42.676;23.262;2023-01-19T02:28:14;93432.34;;;14.89;53.44
12077;BME280;12420;42.676;23.262;2023-01-19T02:30:41;93395.84;;;14.95;53.25
12077;BME280;12420;42.676;23.262;2023-01-19T02:33:08;93354.66;;;14.93;52.11
12077;BME280;12420;42.676;23.262;2023-01-19T02:35:36;93355.06;;;14.70;52.54
12077;BME280;12420;42.676;23.262;2023-01-19T02:38:05;93367.09;;;14.83;52.90
12077;BME280;12420;42.676;23.262;2023-01-19T02:40:33;93413.16;;;15.13;53.38
12077;BME280;12420;42.676;23.262;2023-01-19T02:43:06;93432.50;;;15.11;53.03
12077;BME280;12420;42.676;23.262;2023-01-19T02:45:34;93431.78;;;15.10;53.17
12077;BME280;12420;42.676;23.262;2023-01-19T02:48:02;93390.13;;;14.64;53.16
12077;BME280;12420;42.676;23.262;2023-01-19T02:50:36;93422.84;;;15.12;52.65
12077;BME280;12420;42.676;23.262;2023-01-19T02:53:18;93425.16;;;15.15;52.13
12077;BME280;12420;42.676;23.262;2023-01-19T02:55:50;93416.53;;;15.11;52.47
12077;BME280;12420;42.676;23.262;2023-01-19T02:58:26;93338.09;;;14.76;51.84
12077;BME280;12420;42.676;23.262;2023-01-19T03:01:04;93430.75;;;15.15;52.52
12077;BME280;12420;42.676;23.262;2023-01-19T03:03:43;93417.69;;;15.08;52.20
12077;BME280;12420;42.676;23.262;2023-01-19T03:06:23;93421.81;;;15.07;52.44
12077;BME280;12420;42.676;23.262;2023-01-19T03:08:59;93403.63;;;15.06;52.45
12077;BME280;12420;42.676;23.262;2023-01-19T03:11:33;93378.38;;;14.75;52.78
12077;BME280;12420;42.676;23.262;2023-01-19T03:14:08;93418.44;;;14.99;52.75
12077;BME280;12420;42.676;23.262;2023-01-19T03:16:40;93386.59;;;14.83;52.64
12077;BME280;12420;42.676;23.262;2023-01-19T03:19:09;93422.25;;;14.94;52.70
12077;BME280;12420;42.676;23.262;2023-01-19T03:21:41;93407.56;;;14.74;53.24
12077;BME280;12420;42.676;23.262;2023-01-19T03:24:10;93424.16;;;15.01;52.75
12077;BME280;12420;42.676;23.262;2023-01-19T03:26:40;93367.72;;;14.91;52.40
12077;BME280;12420;42.676;23.262;2023-01-19T03:29:12;93448.03;;;14.94;52.62
12077;BME280;12420;42.676;23.262;2023-01-19T03:31:41;93429.59;;;14.99;52.68
12077;BME280;12420;42.676;23.262;2023-01-19T03:34:12;93419.91;;;15.00;52.42
12077;BME280;12420;42.676;23.262;2023-01-19T03:36:43;93378.53;;;14.87;52.83
12077;BME280;12420;42.676;23.262;2023-01-19T03:39:13;93409.63;;;14.73;53.43
12077;BME280;12420;42.676;23.262;2023-01-19T03:41:42;93444.81;;;14.98;52.65
12077;BME280;12420;42.676;23.262;2023-01-19T03:44:15;93398.91;;;14.80;52.47
12077;BME280;12420;42.676;23.262;2023-01-19T03:46:43;93378.97;;;14.93;52.46
12077;BME280;12420;42.676;23.262;2023-01-19T03:49:10;93474.28;;;14.91;52.02
12077;BME280;12420;42.676;23.262;2023-01-19T03:51:38;93447.91;;;14.92;52.55
12077;BME280;12420;42.676;23.262;2023-01-19T03:54:06;93401.72;;;14.99;52.65
12077;BME280;12420;42.676;23.262;2023-01-19T03:56:33;93417.97;;;14.83;51.79
12077;BME280;12420;42.676;23.262;2023-01-19T03:58:59;93353.63;;;14.69;51.90
12077;BME280;12420;42.676;23.262;2023-01-19T04:01:28;93408.47;;;14.96;51.79
12077;BME280;12420;42.676;23.262;2023-01-19T04:03:54;93419.91;;;15.00;52.12
12077;BME280;12420;42.676;23.262;2023-01-19T04:06:21;93382.19;;;14.70;52.01
12077;BME280;12420;42.676;23.262;2023-01-19T04:08:49;93427.81;;;14.94;51.08
12077;BME280;12420;42.676;23.262;2023-01-19T04:11:16;93388.66;;;14.92;50.85
12077;BME280;12420;42.676;23.262;2023-01-19T04:13:43;93400.09;;;15.06;51.03
12077;BME280;12420;42.676;23.262;2023-01-19T04:16:11;93391.00;;;15.05;50.80
12077;BME280;12420;42.676;23.262;2023-01-19T04:18:39;93459.94;;;15.05;50.79
12077;BME280;12420;42.676;23.262;2023-01-19T04:21:07;93382.06;;;14.97;50.79
12077;BME280;12420;42.676;23.262;2023-01-19T04:23:34;93366.81;;;14.98;50.89
12077;BME280;12420;42.676;23.262;2023-01-19T04:26:02;93372.22;;;15.06;50.62
12077;BME280;12420;42.676;23.262;2023-01-19T04:28:30;93366.22;;;14.90;50.12
12077;BME280;12420;42.676;23.262;2023-01-19T04:30:57;93402.31;;;15.07;49.75
12077;BME280;12420;42.676;23.262;2023-01-19T04:33:25;93424.91;;;15.11;49.30
12077;BME280;12420;42.676;23.262;2023-01-19T04:35:54;93382.66;;;15.15;48.63
12077;BME280;12420;42.676;23.262;2023-01-19T04:38:23;93362.56;;;15.16;48.29
12077;BME280;12420;42.676;23.262;2023-01-19T04:40:50;93334.72;;;14.87;48.50
12077;BME280;12420;42.676;23.262;2023-01-19T04:43:18;93394.22;;;15.21;48.87
12077;BME280;12420;42.676;23.262;2023-01-19T04:45:45;93392.75;;;15.20;47.72
12077;BME280;12420;42.676;23.262;2023-01-19T04:48:12;93404.94;;;15.25;47.09
12077;BME280;12420;42.676;23.262;2023-01-19T04:50:39;93383.94;;;15.24;47.89
12077;BME280;12420;42.676;23.262;2023-01-19T04:53:08;93425.31;;;15.27;47.16
12077;BME280;12420;42.676;23.262;2023-01-19T04:55:36;93378.69;;;15.08;47.53
12077;BME280;12420;42.676;23.262;2023-01-19T04:58:03;93357.56;;;15.25;47.71
12077;BME280;12420;42.676;23.262;2023-01-19T05:00:30;93380.72;;;15.27;48.14
12077;BME280;12420;42.676;23.262;2023-01-19T05:02:57;93388.94;;;15.25;47.90
12077;BME280;12420;42.676;23.262;2023-01-19T05:05:25;93443.97;;;15.34;47.88
12077;BME280;12420;42.676;23.262;2023-01-19T05:07:52;93451.28;;;15.30;47.90
12077;BME280;12420;42.676;23.262;2023-01-19T05:10:21;93409.34;;;15.28;47.59
12077;BME280;12420;42.676;23.262;2023-01-19T05:12:48;93444.53;;;15.33;47.69
12077;BME280;12420;42.676;23.262;2023-01-19T05:15:15;93433.53;;;15.35;47.54
12077;BME280;12420;42.676;23.262;2023-01-19T05:17:42;93450.41;;;15.37;47.41
12077;BME280;12420;42.676;23.262;2023-01-19T05:20:10;93442.19;;;15.39;47.92
12077;BME280;12420;42.676;23.262;2023-01-19T05:22:37;93433.09;;;15.29;47.74
12077;BME280;12420;42.676;23.262;2023-01-19T05:25:05;93429.56;;;15.38;48.17
12077;BME280;12420;42.676;23.262;2023-01-19T05:27:35;93446.44;;;15.30;48.00
12077;BME280;12420;42.676;23.262;2023-01-19T05:30:04;93431.47;;;15.35;47.51
12077;BME280;12420;42.676;23.262;2023-01-19T05:32:31;93411.22;;;15.06;48.19
12077;BME280;12420;42.676;23.262;2023-01-19T05:35:00;93420.94;;;15.24;47.74
12077;BME280;12420;42.676;23.262;2023-01-19T05:37:27;93406.13;;;15.22;47.37
12077;BME280;12420;42.676;23.262;2023-01-19T05:39:57;93428.84;;;15.28;47.36
12077;BME280;12420;42.676;23.262;2023-01-19T05:42:24;93444.09;;;15.27;47.53
12077;BME280;12420;42.676;23.262;2023-01-19T05:44:52;93414.03;;;15.35;46.46
12077;BME280;12420;42.676;23.262;2023-01-19T05:47:21;93428.53;;;15.24;46.57
12077;BME280;12420;42.676;23.262;2023-01-19T05:49:48;93412.72;;;15.16;46.74
12077;BME280;12420;42.676;23.262;2023-01-19T05:52:14;93344.84;;;14.63;46.98
12077;BME280;12420;42.676;23.262;2023-01-19T05:54:43;93435.28;;;15.40;46.82
12077;BME280;12420;42.676;23.262;2023-01-19T05:57:09;93427.97;;;15.35;46.32
12077;BME280;12420;42.676;23.262;2023-01-19T05:59:37;93376.78;;;15.01;46.88
12077;BME280;12420;42.676;23.262;2023-01-19T06:02:05;93479.00;;;15.18;47.11
12077;BME280;12420;42.676;23.262;2023-01-19T06:04:32;93458.63;;;15.35;46.99
12077;BME280;12420;42.676;23.262;2023-01-19T06:06:59;93430.59;;;15.23;46.73
12077;BME280;12420;42.676;23.262;2023-01-19T06:09:26;93400.81;;;15.26;47.08
12077;BME280;12420;42.676;23.262;2023-01-19T06:11:53;93440.13;;;15.30;47.34
12077;BME280;12420;42.676;23.262;2023-01-19T06:14:22;93424.28;;;15.23;46.87
12077;BME280;12420;42.676;23.262;2023-01-19T06:16:49;93478.28;;;15.37;47.08
12077;BME280;12420;42.676;23.262;2023-01-19T06:19:17;93404.06;;;15.12;47.20
12077;BME280;12420;42.676;23.262;2023-01-19T06:21:47;93452.03;;;15.40;46.66
12077;BME280;12420;42.676;23.262;2023-01-19T06:24:16;93445.13;;;15.41;46.86
12077;BME280;12420;42.676;23.262;2023-01-19T06:26:43;93465.81;;;15.28;46.55
12077;BME280;12420;42.676;23.262;2023-01-19T06:29:10;93505.00;;;15.40;47.02
12077;BME280;12420;42.676;23.262;2023-01-19T06:31:38;93457.00;;;15.41;46.68
12077;BME280;12420;42.676;23.262;2023-01-19T06:34:04;93406.84;;;15.03;46.62
12077;BME280;12420;42.676;23.262;2023-01-19T06:36:33;93375.91;;;14.89;46.62
12077;BME280;12420;42.676;23.262;2023-01-19T06:38:59;93474.03;;;15.46;47.15
12077;BME280;12420;42.676;23.262;2023-01-19T06:41:27;93466.09;;;15.32;47.28
12077;BME280;12420;42.676;23.262;2023-01-19T06:43:55;93497.94;;;15.39;47.25
12077;BME280;12420;42.676;23.262;2023-01-19T06:46:22;93517.19;;;15.45;47.66
12077;BME280;12420;42.676;23.262;2023-01-19T06:48:48;93419.13;;;14.61;48.76
12077;BME280;12420;42.676;23.262;2023-01-19T06:51:15;93502.19;;;15.30;48.60
12077;BME280;12420;42.676;23.262;2023-01-19T06:53:43;93511.28;;;15.40;48.18
12077;BME280;12420;42.676;23.262;2023-01-19T06:56:10;93520.69;;;15.55;48.00
12077;BME280;12420;42.676;23.262;2023-01-19T06:58:37;93499.84;;;15.46;47.33
12077;BME280;12420;42.676;23.262;2023-01-19T07:01:06;93381.25;;;14.38;46.97
12077;BME280;12420;42.676;23.262;2023-01-19T07:03:34;93521.72;;;15.59;47.36
12077;BME280;12420;42.676;23.262;2023-01-19T07:06:02;93528.91;;;15.62;47.14
12077;BME280;12420;42.676;23.262;2023-01-19T07:08:31;93549.06;;;15.71;46.08
12077;BME280;12420;42.676;23.262;2023-01-19T07:11:00;93510.56;;;15.40;45.89
12077;BME280;12420;42.676;23.262;2023-01-19T07:13:29;93440.72;;;15.38;45.64
12077;BME280;12420;42.676;23.262;2023-01-19T07:15:55;93513.38;;;15.79;45.35
12077;BME280;12420;42.676;23.262;2023-01-19T07:18:22;93536.88;;;15.76;44.92
12077;BME280;12420;42.676;23.262;2023-01-19T07:20:49;93487.81;;;15.82;44.14
12077;BME280;12420;42.676;23.262;2023-01-19T07:23:16;93514.81;;;15.99;44.24
12077;BME280;12420;42.676;23.262;2023-01-19T07:25:44;93528.03;;;15.89;44.18
12077;BME280;12420;42.676;23.262;2023-01-19T07:28:12;93520.94;;;16.08;44.24
12077;BME280;12420;42.676;23.262;2023-01-19T07:30:43;93522.84;;;16.05;44.14
12077;BME280;12420;42.676;23.262;2023-01-19T07:33:10;93467.69;;;15.64;44.18
12077;BME280;12420;42.676;23.262;2023-01-19T07:35:38;93525.22;;;16.09;44.72
12077;BME280;12420;42.676;23.262;2023-01-19T07:38:06;93497.78;;;15.95;44.46
12077;BME280;12420;42.676;23.262;2023-01-19T07:40:32;93536.81;;;16.15;44.61
12077;BME280;12420;42.676;23.262;2023-01-19T07:42:59;93486.75;;;15.97;43.12
12077;BME280;12420;42.676;23.262;2023-01-19T07:45:28;93490.53;;;16.12;43.12
12077;BME280;12420;42.676;23.262;2023-01-19T07:47:54;93521.22;;;16.21;42.85
12077;BME280;12420;42.676;23.262;2023-01-19T07:50:21;93531.38;;;16.17;43.33
12077;BME280;12420;42.676;23.262;2023-01-19T07:52:50;93487.66;;;15.90;41.54
12077;BME280;12420;42.676;23.262;2023-01-19T07:55:18;93492.78;;;16.03;41.53
12077;BME280;12420;42.676;23.262;2023-01-19T07:57:48;93537.19;;;16.40;41.73
12077;BME280;12420;42.676;23.262;2023-01-19T08:00:17;93546.41;;;16.53;41.95
12077;BME280;12420;42.676;23.262;2023-01-19T08:02:47;93477.47;;;16.04;41.89
12077;BME280;12420;42.676;23.262;2023-01-19T08:05:15;93539.66;;;16.46;42.43
12077;BME280;12420;42.676;23.262;2023-01-19T08:07:43;93525.16;;;16.28;42.93
12077;BME280;12420;42.676;23.262;2023-01-19T08:10:11;93512.06;;;16.31;42.28
12077;BME280;12420;42.676;23.262;2023-01-19T08:12:39;93532.06;;;16.37;41.06
12077;BME280;12420;42.676;23.262;2023-01-19T08:15:09;93531.94;;;16.25;41.14
12077;BME280;12420;42.676;23.262;2023-01-19T08:17:36;93515.00;;;16.33;40.64
12077;BME280;12420;42.676;23.262;2023-01-19T08:20:12;93517.88;;;16.54;40.28
12077;BME280;12420;42.676;23.262;2023-01-19T08:22:47;93562.97;;;16.70;40.27
12077;BME280;12420;42.676;23.262;2023-01-19T08:25:14;93537.97;;;16.72;39.76
12077;BME280;12420;42.676;23.262;2023-01-19T08:27:41;93543.41;;;16.80;39.40
12077;BME280;12420;42.676;23.262;2023-01-19T08:30:10;93529.50;;;16.50;39.59
12077;BME280;12420;42.676;23.262;2023-01-19T08:32:37;93542.00;;;16.90;39.76
12077;BME280;12420;42.676;23.262;2023-01-19T08:35:06;93501.91;;;16.35;40.20
12077;BME280;12420;42.676;23.262;2023-01-19T08:37:33;93559.06;;;16.95;39.99
12077;BME280;12420;42.676;23.262;2023-01-19T08:39:59;93569.97;;;16.90;40.69
12077;BME280;12420;42.676;23.262;2023-01-19T08:42:27;93587.28;;;16.99;40.20
12077;BME280;12420;42.676;23.262;2023-01-19T08:44:55;93523.25;;;16.71;40.47
12077;BME280;12420;42.676;23.262;2023-01-19T08:47:24;93564.28;;;17.10;39.74
12077;BME280;12420;42.676;23.262;2023-01-19T08:49:52;93537.97;;;16.72;39.85
12077;BME280;12420;42.676;23.262;2023-01-19T08:52:20;93482.16;;;16.53;39.45
12077;BME280;12420;42.676;23.262;2023-01-19T08:54:49;93569.78;;;16.98;39.47
12077;BME280;12420;42.676;23.262;2023-01-19T08:57:15;93581.16;;;17.12;39.92
12077;BME280;12420;42.676;23.262;2023-01-19T08:59:42;93588.38;;;16.84;40.17
12077;BME280;12420;42.676;23.262;2023-01-19T09:02:11;93600.94;;;17.04;40.33
12077;BME280;12420;42.676;23.262;2023-01-19T09:04:38;93599.75;;;17.07;40.30
12077;BME280;12420;42.676;23.262;2023-01-19T09:07:05;93609.06;;;17.00;40.37
12077;BME280;12420;42.676;23.262;2023-01-19T09:09:33;93605.41;;;17.19;40.33
12077;BME280;12420;42.676;23.262;2023-01-19T09:12:02;93618.63;;;17.28;39.23
12077;BME280;12420;42.676;23.262;2023-01-19T09:14:29;93566.50;;;17.02;39.47
12077;BME280;12420;42.676;23.262;2023-01-19T09:16:57;93588.66;;;17.19;40.28
12077;BME280;12420;42.676;23.262;2023-01-19T09:19:28;93564.38;;;16.90;39.54
12077;BME280;12420;42.676;23.262;2023-01-19T09:21:55;93562.91;;;17.21;39.81
12077;BME280;12420;42.676;23.262;2023-01-19T09:24:24;93576.28;;;17.44;39.91
12077;BME280;12420;42.676;23.262;2023-01-19T09:26:53;93583.34;;;17.45;40.53
12077;BME280;12420;42.676;23.262;2023-01-19T09:29:20;93616.13;;;17.54;40.33
12077;BME280;12420;42.676;23.262;2023-01-19T09:31:47;93546.06;;;17.52;38.89
12077;BME280;12420;42.676;23.262;2023-01-19T09:34:15;93475.59;;;16.79;39.15
12077;BME280;12420;42.676;23.262;2023-01-19T09:36:52;93549.66;;;17.64;39.23
12077;BME280;12420;42.676;23.262;2023-01-19T09:39:21;93557.78;;;17.82;39.21
12077;BME280;12420;42.676;23.262;2023-01-19T09:42:02;93563.63;;;17.86;39.16
12077;BME280;12420;42.676;23.262;2023-01-19T09:44:34;93578.03;;;17.92;39.16
12077;BME280;12420;42.676;23.262;2023-01-19T09:47:02;93562.63;;;18.03;38.62
12077;BME280;12420;42.676;23.262;2023-01-19T09:49:33;93581.63;;;18.04;38.97
12077;BME280;12420;42.676;23.262;2023-01-19T09:52:02;93554.44;;;17.95;38.56
12077;BME280;12420;42.676;23.262;2023-01-19T09:54:34;93519.81;;;17.57;39.01
12077;BME280;12420;42.676;23.262;2023-01-19T09:57:08;93546.97;;;17.88;37.69
12077;BME280;12420;42.676;23.262;2023-01-19T09:59:37;93539.97;;;17.77;38.64
12077;BME280;12420;42.676;23.262;2023-01-19T10:02:21;93513.00;;;17.82;39.05
12077;BME280;12420;42.676;23.262;2023-01-19T10:04:58;93548.97;;;17.97;38.43
12077;BME280;12420;42.676;23.262;2023-01-19T10:07:49;93531.19;;;17.92;38.87
12077;BME280;12420;42.676;23.262;2023-01-19T10:10:20;93519.03;;;17.99;38.22
12077;BME280;12420;42.676;23.262;2023-01-19T10:12:55;93525.53;;;17.81;39.02
12077;BME280;12420;42.676;23.262;2023-01-19T10:15:41;93547.53;;;18.08;39.11
12077;BME280;12420;42.676;23.262;2023-01-19T10:18:15;93530.31;;;17.90;39.02
12077;BME280;12420;42.676;23.262;2023-01-19T10:20:48;93511.75;;;18.06;39.04
12077;BME280;12420;42.676;23.262;2023-01-19T10:23:22;93452.03;;;17.47;38.93
12077;BME280;12420;42.676;23.262;2023-01-19T10:26:07;93465.97;;;17.68;39.29
12077;BME280;12420;42.676;23.262;2023-01-19T10:28:37;93503.78;;;17.91;37.89
12077;BME280;12420;42.676;23.262;2023-01-19T10:31:04;93514.56;;;18.18;38.06
12077;BME280;12420;42.676;23.262;2023-01-19T10:33:36;93542.09;;;17.88;38.46
12077;BME280;12420;42.676;23.262;2023-01-19T10:36:05;93530.97;;;18.00;38.10
12077;BME280;12420;42.676;23.262;2023-01-19T10:38:34;93545.94;;;18.05;37.98
12077;BME280;12420;42.676;23.262;2023-01-19T10:41:06;93533.22;;;18.25;37.71
12077;BME280;12420;42.676;23.262;2023-01-19T10:43:40;93533.78;;;17.78;37.66
12077;BME280;12420;42.676;23.262;2023-01-19T10:46:18;93515.84;;;17.93;37.49
12077;BME280;12420;42.676;23.262;2023-01-19T10:48:49;93510.03;;;18.01;37.70
12077;BME280;12420;42.676;23.262;2023-01-19T10:51:16;93501.78;;;18.15;37.56
12077;BME280;12420;42.676;23.262;2023-01-19T10:53:56;93500.97;;;17.91;37.81
12077;BME280;12420;42.676;23.262;2023-01-19T10:56:26;93495.66;;;17.95;38.03
12077;BME280;12420;42.676;23.262;2023-01-19T10:58:55;93506.97;;;17.97;38.06
12077;BME280;12420;42.676;23.262;2023-01-19T11:01:24;93514.13;;;17.88;37.37
12077;BME280;12420;42.676;23.262;2023-01-19T11:03:53;93511.25;;;17.43;38.43
12077;BME280;12420;42.676;23.262;2023-01-19T11:06:25;93532.75;;;17.41;38.63
12077;BME280;12420;42.676;23.262;2023-01-19T11:08:53;93516.63;;;17.29;39.25
12077;BME280;12420;42.676;23.262;2023-01-19T11:11:41;93450.66;;;17.14;39.43
12077;BME280;12420;42.676;23.262;2023-01-19T11:14:12;93486.00;;;17.10;39.53
12077;BME280;12420;42.676;23.262;2023-01-19T11:16:40;93442.31;;;16.83;39.71
12077;BME280;12420;42.676;23.262;2023-01-19T11:19:18;93481.41;;;17.14;39.55
12077;BME280;12420;42.676;23.262;2023-01-19T11:21:46;93465.88;;;17.02;39.26
12077;BME280;12420;42.676;23.262;2023-01-19T11:24:13;93475.34;;;17.18;39.71
12077;BME280;12420;42.676;23.262;2023-01-19T11:26:53;93473.06;;;17.48;39.58
12077;BME280;12420;42.676;23.262;2023-01-19T11:29:24;93424.53;;;17.22;39.19
12077;BME280;12420;42.676;23.262;2023-01-19T11:31:52;93509.47;;;17.60;39.49
12077;BME280;12420;42.676;23.262;2023-01-19T11:34:24;93450.44;;;17.44;38.85
12077;BME280;12420;42.676;23.262;2023-01-19T11:36:57;93452.28;;;17.51;38.62
12077;BME280;12420;42.676;23.262;2023-01-19T11:39:25;93503.09;;;17.69;39.00
12077;BME280;12420;42.676;23.262;2023-01-19T11:41:55;93491.00;;;17.88;38.67
12077;BME280;12420;42.676;23.262;2023-01-19T11:44:28;93447.28;;;17.83;38.67
12077;BME280;12420;42.676;23.262;2023-01-19T11:46:58;93472.34;;;17.81;38.35
12077;BME280;12420;42.676;23.262;2023-01-19T11:49:30;93509.78;;;17.75;38.40
12077;BME280;12420;42.676;23.262;2023-01-19T11:52:04;93482.81;;;17.80;37.96
12077;BME280;12420;42.676;23.262;2023-01-19T11:54:35;93428.28;;;17.14;37.76
12077;BME280;12420;42.676;23.262;2023-01-19T11:57:10;93442.03;;;17.44;37.59
12077;BME280;12420;42.676;23.262;2023-01-19T11:59:39;93470.97;;;17.70;37.64
12077;BME280;12420;42.676;23.262;2023-01-19T12:02:15;93398.22;;;17.36;37.10
12077;BME280;12420;42.676;23.262;2023-01-19T12:04:44;93403.59;;;17.11;37.99
12077;BME280;12420;42.676;23.262;2023-01-19T12:07:17;93431.28;;;17.62;37.96
12077;BME280;12420;42.676;23.262;2023-01-19T12:09:46;93402.66;;;17.18;37.30
12077;BME280;12420;42.676;23.262;2023-01-19T12:12:24;93445.56;;;17.77;37.52
12077;BME280;12420;42.676;23.262;2023-01-19T12:14:57;93457.91;;;17.84;37.61
12077;BME280;12420;42.676;23.262;2023-01-19T12:17:26;93412.59;;;17.76;37.29
12077;BME280;12420;42.676;23.262;2023-01-19T12:20:00;93423.72;;;17.97;37.98
12077;BME280;12420;42.676;23.262;2023-01-19T12:22:36;93433.44;;;17.85;37.17
12077;BME280;12420;42.676;23.262;2023-01-19T12:25:13;93460.13;;;17.97;36.81
12077;BME280;12420;42.676;23.262;2023-01-19T12:27:42;93438.44;;;17.98;36.63
12077;BME280;12420;42.676;23.262;2023-01-19T12:30:17;93440.88;;;18.04;36.70
12077;BME280;12420;42.676;23.262;2023-01-19T12:32:44;93422.16;;;18.06;36.87
12077;BME280;12420;42.676;23.262;2023-01-19T12:38:34;93425.94;;;18.11;35.73
12077;BME280;12420;42.676;23.262;2023-01-19T12:41:21;93449.44;;;18.17;35.76
12077;BME280;12420;42.676;23.262;2023-01-19T12:47:19;93369.34;;;17.22;36.50
12077;BME280;12420;42.676;23.262;2023-01-19T12:49:50;93464.72;;;17.93;35.97
12077;BME280;12420;42.676;23.262;2023-01-19T12:52:24;93394.34;;;17.42;36.48
12077;BME280;12420;42.676;23.262;2023-01-19T12:55:01;93543.59;;;17.89;35.99
12077;BME280;12420;42.676;23.262;2023-01-19T12:57:32;93438.59;;;17.67;35.86
12077;BME280;12420;42.676;23.262;2023-01-19T13:00:03;93454.84;;;17.80;36.52
12077;BME280;12420;42.676;23.262;2023-01-19T13:02:51;93430.13;;;17.76;36.29
12077;BME280;12420;42.676;23.262;2023-01-19T13:05:23;93455.88;;;17.75;36.99
12077;BME280;12420;42.676;23.262;2023-01-19T13:08:14;93448.13;;;17.73;36.82
12077;BME280;12420;42.676;23.262;2023-01-19T13:17:01;93409.97;;;17.23;37.48